sensor_id;sensor_type;location;lat;lon;timestamp;temperature;humidity
41060;DHT22;26811;53.160;8.202;2022-10-10T00:00:10;6.80;99.90
41060;DHT22;26811;53.160;8.202;2022-10-10T00:05:11;6.70;99.90
41060;DHT22;26811;53.160;8.202;2022-10-10T00:10:11;6.60;99.90
41060;DHT22;26811;53.160;8.202;2022-10-10T00:15:12;6.60;99.90
41060;DHT22;26811;53.160;8.202;2022-10-10T00:20:14;6.50;99.90
41060;DHT22;26811;53.160;8.202;2022-10-10T00:25:16;6.50;99.90
41060;DHT22;26811;53.160;8.202;2022-10-10T00:30:16;6.50;99.90
41060;DHT22;26811;53.160;8.202;2022-10-10T00:35:17;6.60;99.90
41060;DHT22;26811;53.160;8.202;2022-10-10T00:40:18;6.60;99.90
41060;DHT22;26811;53.160;8.202;2022-10-10T00:45:23;6.50;99.90
41060;DHT22;26811;53.160;8.202;2022-10-10T00:50:24;6.60;99.90
41060;DHT22;26811;53.160;8.202;2022-10-10T00:55:25;6.60;99.90
41060;DHT22;26811;53.160;8.202;2022-10-10T01:00:25;6.60;99.90
41060;DHT22;26811;53.160;8.202;2022-10-10T01:05:26;6.60;99.90
41060;DHT22;26811;53.160;8.202;2022-10-10T01:10:26;6.60;99.90
41060;DHT22;26811;53.160;8.202;2022-10-10T01:30:31;6.80;99.90
41060;DHT22;26811;53.160;8.202;2022-10-10T01:40:55;7.10;99.90
41060;DHT22;26811;53.160;8.202;2022-10-10T01:45:56;7.30;99.90
41060;DHT22;26811;53.160;8.202;2022-10-10T02:06:16;7.50;99.90
41060;DHT22;26811;53.160;8.202;2022-10-10T02:11:19;7.50;99.90
41060;DHT22;26811;53.160;8.202;2022-10-10T02:16:21;7.40;99.90
41060;DHT22;26811;53.160;8.202;2022-10-10T02:21:23;7.40;99.90
41060;DHT22;26811;53.160;8.202;2022-10-10T02:26:24;7.50;99.90
41060;DHT22;26811;53.160;8.202;2022-10-10T02:31:26;7.60;99.90
41060;DHT22;26811;53.160;8.202;2022-10-10T02:36:28;7.60;99.90
41060;DHT22;26811;53.160;8.202;2022-10-10T02:41:28;7.60;99.90
41060;DHT22;26811;53.160;8.202;2022-10-10T02:46:30;7.60;99.90
41060;DHT22;26811;53.160;8.202;2022-10-10T02:51:30;7.70;99.90
41060;DHT22;26811;53.160;8.202;2022-10-10T02:56:30;7.80;99.90
41060;DHT22;26811;53.160;8.202;2022-10-10T03:01:31;7.80;99.90
41060;DHT22;26811;53.160;8.202;2022-10-10T03:06:31;7.80;99.90
41060;DHT22;26811;53.160;8.202;2022-10-10T03:11:32;7.90;99.90
41060;DHT22;26811;53.160;8.202;2022-10-10T03:16:33;7.90;99.90
41060;DHT22;26811;53.160;8.202;2022-10-10T03:21:34;8.00;99.90
41060;DHT22;26811;53.160;8.202;2022-10-10T03:26:34;8.00;99.90
41060;DHT22;26811;53.160;8.202;2022-10-10T03:31:35;8.00;99.90
41060;DHT22;26811;53.160;8.202;2022-10-10T03:36:35;8.00;99.90
41060;DHT22;26811;53.160;8.202;2022-10-10T03:41:35;8.00;99.90
41060;DHT22;26811;53.160;8.202;2022-10-10T03:46:36;7.90;99.90
41060;DHT22;26811;53.160;8.202;2022-10-10T03:51:36;7.90;99.90
41060;DHT22;26811;53.160;8.202;2022-10-10T03:56:37;7.90;99.90
41060;DHT22;26811;53.160;8.202;2022-10-10T04:01:38;7.90;99.90
41060;DHT22;26811;53.160;8.202;2022-10-10T04:06:38;7.90;99.90
41060;DHT22;26811;53.160;8.202;2022-10-10T04:11:38;7.80;99.90
41060;DHT22;26811;53.160;8.202;2022-10-10T04:16:40;7.80;99.90
41060;DHT22;26811;53.160;8.202;2022-10-10T04:21:40;7.70;99.90
41060;DHT22;26811;53.160;8.202;2022-10-10T04:26:41;7.70;99.90
41060;DHT22;26811;53.160;8.202;2022-10-10T04:31:41;7.70;99.90
41060;DHT22;26811;53.160;8.202;2022-10-10T04:36:42;7.70;99.90
41060;DHT22;26811;53.160;8.202;2022-10-10T04:41:42;7.70;99.90
41060;DHT22;26811;53.160;8.202;2022-10-10T04:46:43;7.60;99.90
41060;DHT22;26811;53.160;8.202;2022-10-10T04:51:43;7.60;99.90
41060;DHT22;26811;53.160;8.202;2022-10-10T04:56:43;7.60;99.90
41060;DHT22;26811;53.160;8.202;2022-10-10T05:01:45;7.60;99.90
41060;DHT22;26811;53.160;8.202;2022-10-10T05:06:45;7.60;99.90
41060;DHT22;26811;53.160;8.202;2022-10-10T05:11:46;7.60;99.90
41060;DHT22;26811;53.160;8.202;2022-10-10T05:16:46;7.60;99.90
41060;DHT22;26811;53.160;8.202;2022-10-10T05:21:46;7.60;99.90
41060;DHT22;26811;53.160;8.202;2022-10-10T05:26:47;7.60;99.90
41060;DHT22;26811;53.160;8.202;2022-10-10T05:31:50;7.60;99.90
41060;DHT22;26811;53.160;8.202;2022-10-10T05:36:50;7.60;99.90
41060;DHT22;26811;53.160;8.202;2022-10-10T05:41:50;7.60;99.90
41060;DHT22;26811;53.160;8.202;2022-10-10T05:46:51;7.60;99.90
41060;DHT22;26811;53.160;8.202;2022-10-10T05:51:51;7.60;99.90
41060;DHT22;26811;53.160;8.202;2022-10-10T05:56:52;7.60;99.90
41060;DHT22;26811;53.160;8.202;2022-10-10T06:01:55;7.50;99.90
41060;DHT22;26811;53.160;8.202;2022-10-10T06:06:56;7.60;99.90
41060;DHT22;26811;53.160;8.202;2022-10-10T06:11:57;7.60;99.90
41060;DHT22;26811;53.160;8.202;2022-10-10T06:16:57;7.70;99.90
41060;DHT22;26811;53.160;8.202;2022-10-10T06:21:57;7.70;99.90
41060;DHT22;26811;53.160;8.202;2022-10-10T06:26:58;7.80;99.90
41060;DHT22;26811;53.160;8.202;2022-10-10T06:31:58;7.90;99.90
41060;DHT22;26811;53.160;8.202;2022-10-10T06:36:59;8.00;99.90
41060;DHT22;26811;53.160;8.202;2022-10-10T06:41:59;8.10;99.90
41060;DHT22;26811;53.160;8.202;2022-10-10T06:47:00;8.20;99.90
41060;DHT22;26811;53.160;8.202;2022-10-10T06:52:00;8.40;99.90
41060;DHT22;26811;53.160;8.202;2022-10-10T06:57:01;8.60;99.90
41060;DHT22;26811;53.160;8.202;2022-10-10T07:02:01;8.70;99.90
41060;DHT22;26811;53.160;8.202;2022-10-10T07:07:02;8.90;99.90
41060;DHT22;26811;53.160;8.202;2022-10-10T07:12:02;9.10;99.90
41060;DHT22;26811;53.160;8.202;2022-10-10T07:17:03;9.30;99.90
41060;DHT22;26811;53.160;8.202;2022-10-10T07:22:04;9.50;99.90
41060;DHT22;26811;53.160;8.202;2022-10-10T07:27:04;9.70;99.90
41060;DHT22;26811;53.160;8.202;2022-10-10T07:32:05;9.90;99.90
41060;DHT22;26811;53.160;8.202;2022-10-10T07:37:05;10.00;99.90
41060;DHT22;26811;53.160;8.202;2022-10-10T07:42:05;10.20;99.90
41060;DHT22;26811;53.160;8.202;2022-10-10T07:47:06;10.70;99.90
41060;DHT22;26811;53.160;8.202;2022-10-10T07:52:06;11.10;99.90
41060;DHT22;26811;53.160;8.202;2022-10-10T07:57:07;12.00;99.90
41060;DHT22;26811;53.160;8.202;2022-10-10T08:02:07;13.00;99.90
41060;DHT22;26811;53.160;8.202;2022-10-10T08:07:08;13.50;99.90
41060;DHT22;26811;53.160;8.202;2022-10-10T08:12:09;13.90;99.90
41060;DHT22;26811;53.160;8.202;2022-10-10T08:17:09;14.10;99.90
41060;DHT22;26811;53.160;8.202;2022-10-10T08:22:10;14.30;99.90
41060;DHT22;26811;53.160;8.202;2022-10-10T08:27:10;14.40;99.90
41060;DHT22;26811;53.160;8.202;2022-10-10T08:32:10;14.80;99.90
41060;DHT22;26811;53.160;8.202;2022-10-10T08:37:11;15.00;99.90
41060;DHT22;26811;53.160;8.202;2022-10-10T08:42:13;15.10;99.90
41060;DHT22;26811;53.160;8.202;2022-10-10T08:47:17;14.90;99.90
41060;DHT22;26811;53.160;8.202;2022-10-10T08:57:29;15.30;99.90
41060;DHT22;26811;53.160;8.202;2022-10-10T09:02:35;15.70;99.90
41060;DHT22;26811;53.160;8.202;2022-10-10T09:13:32;15.90;99.90
41060;DHT22;26811;53.160;8.202;2022-10-10T09:29:11;15.80;99.90
41060;DHT22;26811;53.160;8.202;2022-10-10T09:34:14;15.80;99.90
41060;DHT22;26811;53.160;8.202;2022-10-10T09:39:18;16.10;99.90
41060;DHT22;26811;53.160;8.202;2022-10-10T09:44:20;16.20;99.90
41060;DHT22;26811;53.160;8.202;2022-10-10T09:49:21;16.10;99.90
41060;DHT22;26811;53.160;8.202;2022-10-10T09:54:22;16.10;99.90
41060;DHT22;26811;53.160;8.202;2022-10-10T09:59:39;16.20;99.90
41060;DHT22;26811;53.160;8.202;2022-10-10T10:04:40;16.40;99.90
41060;DHT22;26811;53.160;8.202;2022-10-10T10:09:40;16.50;99.90
41060;DHT22;26811;53.160;8.202;2022-10-10T10:14:45;16.70;99.90
41060;DHT22;26811;53.160;8.202;2022-10-10T10:19:46;16.90;99.90
41060;DHT22;26811;53.160;8.202;2022-10-10T10:24:46;16.90;99.90
41060;DHT22;26811;53.160;8.202;2022-10-10T10:29:49;17.20;99.90
41060;DHT22;26811;53.160;8.202;2022-10-10T11:00:51;17.70;99.90
41060;DHT22;26811;53.160;8.202;2022-10-10T11:06:09;18.00;99.90
41060;DHT22;26811;53.160;8.202;2022-10-10T11:21:31;17.90;99.90
41060;DHT22;26811;53.160;8.202;2022-10-10T11:26:53;18.20;99.90
41060;DHT22;26811;53.160;8.202;2022-10-10T11:32:11;18.30;99.90
41060;DHT22;26811;53.160;8.202;2022-10-10T11:37:15;18.40;99.90
41060;DHT22;26811;53.160;8.202;2022-10-10T11:47:46;18.40;99.90
41060;DHT22;26811;53.160;8.202;2022-10-10T11:57:51;18.20;99.90
41060;DHT22;26811;53.160;8.202;2022-10-10T12:02:54;18.20;99.90
41060;DHT22;26811;53.160;8.202;2022-10-10T12:12:56;18.50;99.90
41060;DHT22;26811;53.160;8.202;2022-10-10T12:17:58;18.40;99.90
41060;DHT22;26811;53.160;8.202;2022-10-10T12:23:18;18.20;99.90
41060;DHT22;26811;53.160;8.202;2022-10-10T12:28:24;18.10;99.90
41060;DHT22;26811;53.160;8.202;2022-10-10T12:38:32;17.80;99.90
41060;DHT22;26811;53.160;8.202;2022-10-10T12:43:37;17.80;99.90
41060;DHT22;26811;53.160;8.202;2022-10-10T12:48:37;17.80;99.90
41060;DHT22;26811;53.160;8.202;2022-10-10T12:53:38;17.90;99.90
41060;DHT22;26811;53.160;8.202;2022-10-10T12:58:39;17.80;99.90
41060;DHT22;26811;53.160;8.202;2022-10-10T13:03:44;17.70;99.90
41060;DHT22;26811;53.160;8.202;2022-10-10T13:08:45;17.70;99.90
41060;DHT22;26811;53.160;8.202;2022-10-10T13:13:49;17.80;99.90
41060;DHT22;26811;53.160;8.202;2022-10-10T13:18:55;17.70;99.90
41060;DHT22;26811;53.160;8.202;2022-10-10T13:23:57;17.60;99.90
41060;DHT22;26811;53.160;8.202;2022-10-10T13:29:00;17.40;99.90
41060;DHT22;26811;53.160;8.202;2022-10-10T13:34:04;17.30;99.90
41060;DHT22;26811;53.160;8.202;2022-10-10T13:39:06;17.00;99.90
41060;DHT22;26811;53.160;8.202;2022-10-10T13:44:20;16.70;99.90
41060;DHT22;26811;53.160;8.202;2022-10-10T13:49:24;16.60;99.90
41060;DHT22;26811;53.160;8.202;2022-10-10T13:54:38;16.50;99.90
41060;DHT22;26811;53.160;8.202;2022-10-10T13:59:39;16.40;99.90
41060;DHT22;26811;53.160;8.202;2022-10-10T14:04:43;16.20;99.90
41060;DHT22;26811;53.160;8.202;2022-10-10T14:09:55;16.10;99.90
41060;DHT22;26811;53.160;8.202;2022-10-10T14:14:56;16.00;99.90
41060;DHT22;26811;53.160;8.202;2022-10-10T14:19:57;15.90;99.90
41060;DHT22;26811;53.160;8.202;2022-10-10T14:24:58;15.80;99.90
41060;DHT22;26811;53.160;8.202;2022-10-10T14:29:58;15.60;99.90
41060;DHT22;26811;53.160;8.202;2022-10-10T14:34:59;15.40;99.90
41060;DHT22;26811;53.160;8.202;2022-10-10T14:39:59;15.30;99.90
41060;DHT22;26811;53.160;8.202;2022-10-10T14:45:00;15.20;99.90
41060;DHT22;26811;53.160;8.202;2022-10-10T14:50:00;14.90;99.90
41060;DHT22;26811;53.160;8.202;2022-10-10T14:55:01;14.60;99.90
41060;DHT22;26811;53.160;8.202;2022-10-10T15:00:02;14.20;99.90
41060;DHT22;26811;53.160;8.202;2022-10-10T15:05:03;13.90;99.90
41060;DHT22;26811;53.160;8.202;2022-10-10T15:10:03;13.70;99.90
41060;DHT22;26811;53.160;8.202;2022-10-10T15:15:04;13.60;99.90
41060;DHT22;26811;53.160;8.202;2022-10-10T15:20:06;13.60;99.90
41060;DHT22;26811;53.160;8.202;2022-10-10T15:25:07;13.50;99.90
41060;DHT22;26811;53.160;8.202;2022-10-10T15:30:08;13.30;99.90
41060;DHT22;26811;53.160;8.202;2022-10-10T15:35:10;13.30;99.90
41060;DHT22;26811;53.160;8.202;2022-10-10T15:40:13;13.20;99.90
41060;DHT22;26811;53.160;8.202;2022-10-10T15:45:14;13.20;99.90
41060;DHT22;26811;53.160;8.202;2022-10-10T15:50:15;13.10;99.90
41060;DHT22;26811;53.160;8.202;2022-10-10T15:55:15;13.10;99.90
41060;DHT22;26811;53.160;8.202;2022-10-10T16:00:15;13.00;99.90
41060;DHT22;26811;53.160;8.202;2022-10-10T16:05:16;12.80;99.90
41060;DHT22;26811;53.160;8.202;2022-10-10T16:10:16;12.70;99.90
41060;DHT22;26811;53.160;8.202;2022-10-10T16:15:17;12.50;99.90
41060;DHT22;26811;53.160;8.202;2022-10-10T16:20:17;12.50;99.90
41060;DHT22;26811;53.160;8.202;2022-10-10T16:25:18;12.40;99.90
41060;DHT22;26811;53.160;8.202;2022-10-10T16:30:18;12.40;99.90
41060;DHT22;26811;53.160;8.202;2022-10-10T16:35:20;12.30;99.90
41060;DHT22;26811;53.160;8.202;2022-10-10T16:40:20;12.20;99.90
41060;DHT22;26811;53.160;8.202;2022-10-10T16:45:21;12.20;99.90
41060;DHT22;26811;53.160;8.202;2022-10-10T16:50:21;12.10;99.90
41060;DHT22;26811;53.160;8.202;2022-10-10T16:55:21;12.00;99.90
41060;DHT22;26811;53.160;8.202;2022-10-10T17:00:22;11.80;99.90
41060;DHT22;26811;53.160;8.202;2022-10-10T17:05:22;11.60;99.90
41060;DHT22;26811;53.160;8.202;2022-10-10T17:10:23;11.50;99.90
41060;DHT22;26811;53.160;8.202;2022-10-10T17:15:23;11.30;99.90
41060;DHT22;26811;53.160;8.202;2022-10-10T17:20:24;11.10;99.90
41060;DHT22;26811;53.160;8.202;2022-10-10T17:25:24;11.00;99.90
41060;DHT22;26811;53.160;8.202;2022-10-10T17:30:25;10.90;99.90
41060;DHT22;26811;53.160;8.202;2022-10-10T17:35:26;10.80;99.90
41060;DHT22;26811;53.160;8.202;2022-10-10T17:40:26;10.80;99.90
41060;DHT22;26811;53.160;8.202;2022-10-10T17:45:27;10.70;99.90
41060;DHT22;26811;53.160;8.202;2022-10-10T17:50:27;10.70;99.90
41060;DHT22;26811;53.160;8.202;2022-10-10T17:55:27;10.60;99.90
41060;DHT22;26811;53.160;8.202;2022-10-10T18:00:28;10.50;99.90
41060;DHT22;26811;53.160;8.202;2022-10-10T18:05:28;10.50;99.90
41060;DHT22;26811;53.160;8.202;2022-10-10T18:10:30;10.40;99.90
41060;DHT22;26811;53.160;8.202;2022-10-10T18:15:31;10.40;99.90
41060;DHT22;26811;53.160;8.202;2022-10-10T18:20:34;10.30;99.90
41060;DHT22;26811;53.160;8.202;2022-10-10T18:25:35;10.30;99.90
41060;DHT22;26811;53.160;8.202;2022-10-10T18:30:38;10.10;99.90
41060;DHT22;26811;53.160;8.202;2022-10-10T18:35:41;10.10;99.90
41060;DHT22;26811;53.160;8.202;2022-10-10T18:40:42;10.00;99.90
41060;DHT22;26811;53.160;8.202;2022-10-10T18:45:42;10.00;99.90
41060;DHT22;26811;53.160;8.202;2022-10-10T18:50:43;10.00;99.90
41060;DHT22;26811;53.160;8.202;2022-10-10T18:55:43;10.10;99.90
41060;DHT22;26811;53.160;8.202;2022-10-10T19:00:59;10.00;99.90
41060;DHT22;26811;53.160;8.202;2022-10-10T19:06:01;9.90;99.90
41060;DHT22;26811;53.160;8.202;2022-10-10T19:11:02;9.80;99.90
41060;DHT22;26811;53.160;8.202;2022-10-10T19:16:03;9.80;99.90
41060;DHT22;26811;53.160;8.202;2022-10-10T19:21:04;9.70;99.90
41060;DHT22;26811;53.160;8.202;2022-10-10T19:26:06;9.70;99.90
41060;DHT22;26811;53.160;8.202;2022-10-10T19:31:08;9.60;99.90
41060;DHT22;26811;53.160;8.202;2022-10-10T19:36:10;9.60;99.90
41060;DHT22;26811;53.160;8.202;2022-10-10T19:41:11;9.50;99.90
41060;DHT22;26811;53.160;8.202;2022-10-10T19:46:13;9.50;99.90
41060;DHT22;26811;53.160;8.202;2022-10-10T19:51:14;9.50;99.90
41060;DHT22;26811;53.160;8.202;2022-10-10T19:56:16;9.40;99.90
41060;DHT22;26811;53.160;8.202;2022-10-10T20:01:19;9.30;99.90
41060;DHT22;26811;53.160;8.202;2022-10-10T20:06:21;9.20;99.90
41060;DHT22;26811;53.160;8.202;2022-10-10T20:11:21;9.10;99.90
41060;DHT22;26811;53.160;8.202;2022-10-10T20:16:23;9.10;99.90
41060;DHT22;26811;53.160;8.202;2022-10-10T20:21:27;9.00;99.90
41060;DHT22;26811;53.160;8.202;2022-10-10T20:26:30;9.00;99.90
41060;DHT22;26811;53.160;8.202;2022-10-10T20:31:32;8.90;99.90
41060;DHT22;26811;53.160;8.202;2022-10-10T20:36:34;8.80;99.90
41060;DHT22;26811;53.160;8.202;2022-10-10T20:41:35;8.80;99.90
41060;DHT22;26811;53.160;8.202;2022-10-10T20:46:37;8.80;99.90
41060;DHT22;26811;53.160;8.202;2022-10-10T20:51:38;8.80;99.90
41060;DHT22;26811;53.160;8.202;2022-10-10T20:56:39;8.80;99.90
41060;DHT22;26811;53.160;8.202;2022-10-10T21:01:40;8.70;99.90
41060;DHT22;26811;53.160;8.202;2022-10-10T21:06:40;8.70;99.90
41060;DHT22;26811;53.160;8.202;2022-10-10T21:11:44;8.70;99.90
41060;DHT22;26811;53.160;8.202;2022-10-10T21:16:44;8.70;99.90
41060;DHT22;26811;53.160;8.202;2022-10-10T21:21:45;8.70;99.90
41060;DHT22;26811;53.160;8.202;2022-10-10T21:26:45;8.50;99.90
41060;DHT22;26811;53.160;8.202;2022-10-10T21:31:48;8.50;99.90
41060;DHT22;26811;53.160;8.202;2022-10-10T21:36:48;8.50;99.90
41060;DHT22;26811;53.160;8.202;2022-10-10T21:41:49;8.40;99.90
41060;DHT22;26811;53.160;8.202;2022-10-10T21:46:49;8.40;99.90
41060;DHT22;26811;53.160;8.202;2022-10-10T21:51:50;8.40;99.90
41060;DHT22;26811;53.160;8.202;2022-10-10T21:56:50;8.40;99.90
41060;DHT22;26811;53.160;8.202;2022-10-10T22:01:51;8.40;99.90
41060;DHT22;26811;53.160;8.202;2022-10-10T22:06:51;8.30;99.90
41060;DHT22;26811;53.160;8.202;2022-10-10T22:11:52;8.20;99.90
41060;DHT22;26811;53.160;8.202;2022-10-10T22:16:52;8.20;99.90
41060;DHT22;26811;53.160;8.202;2022-10-10T22:21:53;8.10;99.90
41060;DHT22;26811;53.160;8.202;2022-10-10T22:26:53;8.10;99.90
41060;DHT22;26811;53.160;8.202;2022-10-10T22:31:54;8.00;99.90
41060;DHT22;26811;53.160;8.202;2022-10-10T22:36:54;8.00;99.90
41060;DHT22;26811;53.160;8.202;2022-10-10T22:41:54;8.00;99.90
41060;DHT22;26811;53.160;8.202;2022-10-10T22:46:55;7.90;99.90
41060;DHT22;26811;53.160;8.202;2022-10-10T22:51:56;7.90;99.90
41060;DHT22;26811;53.160;8.202;2022-10-10T22:56:56;7.90;99.90
41060;DHT22;26811;53.160;8.202;2022-10-10T23:01:57;7.80;99.90
41060;DHT22;26811;53.160;8.202;2022-10-10T23:06:57;7.80;99.90
41060;DHT22;26811;53.160;8.202;2022-10-10T23:11:57;7.70;99.90
41060;DHT22;26811;53.160;8.202;2022-10-10T23:16:58;7.70;99.90
41060;DHT22;26811;53.160;8.202;2022-10-10T23:21:58;7.60;99.90
41060;DHT22;26811;53.160;8.202;2022-10-10T23:26:59;7.60;99.90
41060;DHT22;26811;53.160;8.202;2022-10-10T23:31:59;7.70;99.90
41060;DHT22;26811;53.160;8.202;2022-10-10T23:37:00;7.70;99.90
41060;DHT22;26811;53.160;8.202;2022-10-10T23:42:00;7.80;99.90
41060;DHT22;26811;53.160;8.202;2022-10-10T23:47:01;7.80;99.90
41060;DHT22;26811;53.160;8.202;2022-10-10T23:52:01;7.90;99.90
41060;DHT22;26811;53.160;8.202;2022-10-10T23:57:02;7.80;99.90
